CheckWX is a tool to help pilots better visualize weather data.  It is not intended as a substitute for an official pre-flight weather briefing.

19:00:17 UTC

KLSV METAR
Nellis AFB Airport
Las Vegas, Nevada, USA
Current

1 hour ago

KLSV 221758Z 01009G19KT 10SM CLR 06/M07 A2993 RMK AO2A SLP154 T00551067 10055 20017 51019 $
Observed
Feb-22 @ 17:58 UTC
Wind
  • 010° at 9 KTS
  • Gusting to KTS
Visibility
10 SM
Flight Rules
VFR
Cloud Levels
  • Clear skies
Temperature
C / 43°F
Dewpoint
-7°C / 19°F
Humidity
39%
Altimeter
29.93" Hg
Pressure
1015.4 hPa
Previous

1 hour ago

KLSV 221751Z 26014G19KT 10SM CLR 06/M06 A2993 RMK AO2A WSHFT 49 $
Observed
Feb-22 @ 17:51 UTC
Wind
  • 260° at 14 KTS
  • Gusting to KTS
Visibility
10 SM
Flight Rules
VFR
Cloud Levels
  • Clear skies
Temperature
C / 43°F
Dewpoint
-6°C / 21°F
Humidity
42%
Altimeter
29.93" Hg
Pressure
1013.52 hPa
Previous

2 hours ago

KLSV 221658Z 31005KT 10SM CLR 04/M06 A2992 RMK AO2A SLP150 T00431063 $
Observed
Feb-22 @ 16:58 UTC
Wind
  • 310° at 5 KTS
Visibility
10 SM
Flight Rules
VFR
Cloud Levels
  • Clear skies
Temperature
C / 39°F
Dewpoint
-6°C / 21°F
Humidity
48%
Altimeter
29.92" Hg
Pressure
1015 hPa